Time;durP1;ratioP1;P1;durP2;ratioP2;P2;SDS_P1;SDS_P2;PMS_P1;PMS_P2;Temp;Humidity;BMP_temperature;BMP_pressure;BME280_temperature;BME280_humidity;BME280_pressure;Samples;Min_cycle;Max_cycle;Signal;HPM_P1;HPM_P2
2023/03/07 00:02:08;;;;;;;;;;;;;;;;;;5015688;28;19909;-55
2023/03/07 00:04:34;;;;;;;;;;;;;;;;;;5028044;28;19931;-56
2023/03/07 00:06:59;;;;;;;;;;;;;;;;;;5015294;28;19917;-55
2023/03/07 00:09:26;;;;;;;;;;;;;;;;;;5009253;28;19949;-56
2023/03/07 00:11:51;;;;;;;;;;;;;;;;;;5009773;28;20000;-56
2023/03/07 00:14:17;;;;;;;;;;;;;;;;;;5017491;28;20004;-56
2023/03/07 00:16:43;;;;;;;;;;;;;;;;;;5025592;28;19909;-56
2023/03/07 00:19:10;;;;;;;;;;;;;;;;;;5013156;28;19921;-56
2023/03/07 00:21:36;;;;;;;;;;;;;;;;;;5012778;28;20437;-55
2023/03/07 00:24:02;;;;;;;;;;;;;;;;;;5024334;28;19909;-57
2023/03/07 00:26:27;;;;;;;;;;;;;;;;;;5030900;28;19979;-57
2023/03/07 00:28:53;;;;;;;;;;;;;;;;;;5031224;28;19945;-55
2023/03/07 00:31:19;;;;;;;;;;;;;;;;;;5030770;28;19909;-56
2023/03/07 00:33:45;;;;;;;;;;;;;;;;;;5031142;28;19913;-56
2023/03/07 00:36:11;;;;;;;;;;;;;;;;;;5020782;28;19913;-56
2023/03/07 00:38:37;;;;;;;;;;;;;;;;;;5012616;28;19996;-56
2023/03/07 00:41:03;;;;;;;;;;;;;;;;;;5012630;28;19909;-56
2023/03/07 00:43:29;;;;;;;;;;;;;;;;;;5011930;28;19918;-56
2023/03/07 00:45:54;;;;;;;;;;;;;;;;;;5020975;28;19940;-55
2023/03/07 00:48:20;;;;;;;;;;;;;;;;;;5012156;28;20032;-55
2023/03/07 00:50:46;;;;;;;;;;;;;;;;;;5027505;28;20348;-52
2023/03/07 00:53:12;;;;;;;;;;;;;;;;;;5017089;28;19917;-54
2023/03/07 00:55:38;;;;;;;;;;;;;;;;;;5012101;28;19910;-55
2023/03/07 00:58:04;;;;;;;;;;;;;;;;;;5012179;28;20047;-55
2023/03/07 01:00:30;;;;;;;;;;;;;;;;;;5011424;28;19960;-56
2023/03/07 01:03:00;;;;;;;;;;;;;;;;;;5025053;28;19909;-56
2023/03/07 01:05:26;;;;;;;;;;;;;;;;;;5030679;28;19913;-56
2023/03/07 01:07:52;;;;;;;;;;;;;;;;;;5030624;28;19944;-55
2023/03/07 01:10:18;;;;;;;;;;;;;;;;;;5030558;28;19955;-55
2023/03/07 01:12:44;;;;;;;;;;;;;;;;;;5030131;28;19923;-55
2023/03/07 01:15:10;;;;;;;;;;;;;;;;;;5030760;28;19955;-55
2023/03/07 01:17:36;;;;;;;;;;;;;;;;;;5030693;28;19909;-56
2023/03/07 01:20:05;;;;;;;;;;;;;;;;;;5023950;28;20526;-55
2023/03/07 01:22:31;;;;;;;;;;;;;;;;;;5018219;28;19917;-56
2023/03/07 01:24:57;;;;;;;;;;;;;;;;;;5029874;28;19914;-56
2023/03/07 01:27:23;;;;;;;;;;;;;;;;;;5011280;28;20673;-56
2023/03/07 01:29:49;;;;;;;;;;;;;;;;;;5015831;28;19953;-54
2023/03/07 01:32:15;;;;;;;;;;;;;;;;;;5029809;28;20396;-56
2023/03/07 01:34:41;;;;;;;;;;;;;;;;;;5012474;28;19910;-55
2023/03/07 01:37:07;;;;;;;;;;;;;;;;;;5012419;28;19910;-56
2023/03/07 01:39:32;;;;;;;;;;;;;;;;;;5011126;28;19913;-56
2023/03/07 01:41:58;;;;;;;;;;;;;;;;;;5014954;28;20691;-56
2023/03/07 01:44:24;;;;;;;;;;;;;;;;;;5011160;28;19999;-55
2023/03/07 01:46:52;;;;;;;;;;;;;;;;;;5012861;28;19939;-56
2023/03/07 01:49:18;;;;;;;;;;;;;;;;;;5010976;28;19999;-55
2023/03/07 01:51:44;;;;;;;;;;;;;;;;;;5027128;28;20054;-56
2023/03/07 01:54:10;;;;;;;;;;;;;;;;;;5026515;28;20021;-56
2023/03/07 01:56:36;;;;;;;;;;;;;;;;;;5024490;28;19913;-57
2023/03/07 01:59:01;;;;;;;;;;;;;;;;;;5013594;28;19914;-55
2023/03/07 02:01:27;;;;;;;;;;;;;;;;;;5011510;28;19916;-56
2023/03/07 02:03:53;;;;;;;;;;;;;;;;;;5010831;28;19917;-55
2023/03/07 02:06:19;;;;;;;;;;;;;;;;;;5010455;28;19918;-56
2023/03/07 02:08:45;;;;;;;;;;;;;;;;;;5010603;28;19913;-55
2023/03/07 02:11:11;;;;;;;;;;;;;;;;;;5024826;28;19919;-55
2023/03/07 02:13:37;;;;;;;;;;;;;;;;;;5030023;28;20400;-56
2023/03/07 02:16:03;;;;;;;;;;;;;;;;;;5028997;28;19932;-57
2023/03/07 02:18:29;;;;;;;;;;;;;;;;;;5028863;28;19929;-56
2023/03/07 02:20:54;;;;;;;;;;;;;;;;;;5010786;28;20393;-55
2023/03/07 02:23:20;;;;;;;;;;;;;;;;;;5013650;28;19913;-55
2023/03/07 02:25:46;;;;;;;;;;;;;;;;;;5029778;28;19913;-56
2023/03/07 02:28:12;;;;;;;;;;;;;;;;;;5028946;28;19925;-56
2023/03/07 02:30:38;;;;;;;;;;;;;;;;;;5029362;28;20336;-53
2023/03/07 02:33:04;;;;;;;;;;;;;;;;;;5029171;28;20016;-55
2023/03/07 02:35:30;;;;;;;;;;;;;;;;;;5027193;28;20396;-55
2023/03/07 02:37:56;;;;;;;;;;;;;;;;;;5015843;28;19913;-56
2023/03/07 02:40:21;;;;;;;;;;;;;;;;;;5029022;28;20528;-55
2023/03/07 02:42:47;;;;;;;;;;;;;;;;;;5029139;28;19913;-56
2023/03/07 02:45:13;;;;;;;;;;;;;;;;;;5028839;28;19937;-55
2023/03/07 02:47:39;;;;;;;;;;;;;;;;;;5028803;28;19927;-56
2023/03/07 02:50:05;;;;;;;;;;;;;;;;;;5029101;28;19909;-56
2023/03/07 02:52:31;;;;;;;;;;;;;;;;;;5028971;28;20437;-56
2023/03/07 02:54:57;;;;;;;;;;;;;;;;;;5025919;28;19925;-56
2023/03/07 02:57:23;;;;;;;;;;;;;;;;;;5018655;28;19913;-56
2023/03/07 02:59:49;;;;;;;;;;;;;;;;;;5025998;28;20279;-55
2023/03/07 03:02:15;;;;;;;;;;;;;;;;;;5009721;28;19910;-55
2023/03/07 03:04:41;;;;;;;;;;;;;;;;;;5009845;28;19909;-56
2023/03/07 03:07:06;;;;;;;;;;;;;;;;;;5010795;28;19979;-55
2023/03/07 03:09:32;;;;;;;;;;;;;;;;;;5028471;28;19940;-56
2023/03/07 03:11:58;;;;;;;;;;;;;;;;;;5028449;28;19920;-55
2023/03/07 03:14:24;;;;;;;;;;;;;;;;;;5028729;28;19913;-53
2023/03/07 03:16:50;;;;;;;;;;;;;;;;;;5028505;28;19909;-55
2023/03/07 03:19:16;;;;;;;;;;;;;;;;;;5015235;28;19909;-55
2023/03/07 03:21:42;;;;;;;;;;;;;;;;;;5010731;28;20008;-55
2023/03/07 03:24:08;;;;;;;;;;;;;;;;;;5028272;28;19917;-56
2023/03/07 03:26:34;;;;;;;;;;;;;;;;;;5021604;28;20003;-55
2023/03/07 03:29:00;;;;;;;;;;;;;;;;;;5009464;28;20006;-55
2023/03/07 03:31:27;;;;;;;;;;;;;;;;;;5009395;28;19909;-56
2023/03/07 03:33:53;;;;;;;;;;;;;;;;;;5016203;28;19917;-55
2023/03/07 03:36:19;;;;;;;;;;;;;;;;;;5010869;28;19995;-56
2023/03/07 03:38:45;;;;;;;;;;;;;;;;;;5007656;28;20686;-55
2023/03/07 03:41:11;;;;;;;;;;;;;;;;;;5009614;28;19960;-54
2023/03/07 03:43:37;;;;;;;;;;;;;;;;;;5020237;28;19999;-55
2023/03/07 03:46:03;;;;;;;;;;;;;;;;;;5026627;28;19913;-55
2023/03/07 03:48:29;;;;;;;;;;;;;;;;;;5030943;28;19921;-54
2023/03/07 03:50:54;;;;;;;;;;;;;;;;;;5032168;28;19932;-56
2023/03/07 03:53:20;;;;;;;;;;;;;;;;;;5032604;28;20009;-55
2023/03/07 03:55:46;;;;;;;;;;;;;;;;;;5031745;28;19917;-54
2023/03/07 03:58:12;;;;;;;;;;;;;;;;;;5032581;28;19937;-55
2023/03/07 04:00:38;;;;;;;;;;;;;;;;;;5032198;28;19915;-55
2023/03/07 04:03:04;;;;;;;;;;;;;;;;;;5032147;28;20484;-54
2023/03/07 04:05:30;;;;;;;;;;;;;;;;;;5029640;28;19941;-56
2023/03/07 04:07:56;;;;;;;;;;;;;;;;;;5018753;28;19917;-56
2023/03/07 04:10:21;;;;;;;;;;;;;;;;;;5016794;28;19937;-54
2023/03/07 04:12:47;;;;;;;;;;;;;;;;;;5012768;28;19949;-55
2023/03/07 04:15:13;;;;;;;;;;;;;;;;;;5016186;28;19914;-55
2023/03/07 04:17:39;;;;;;;;;;;;;;;;;;5025976;28;19941;-56
2023/03/07 04:20:06;;;;;;;;;;;;;;;;;;5025308;28;20289;-55
2023/03/07 04:22:32;;;;;;;;;;;;;;;;;;5020006;28;19919;-54
2023/03/07 04:24:58;;;;;;;;;;;;;;;;;;5031668;28;20011;-56
2023/03/07 04:27:24;;;;;;;;;;;;;;;;;;5031671;28;20341;-55
2023/03/07 04:29:50;;;;;;;;;;;;;;;;;;5031002;28;20492;-56
2023/03/07 04:32:15;;;;;;;;;;;;;;;;;;5018331;28;20032;-54
2023/03/07 04:34:41;;;;;;;;;;;;;;;;;;5031557;28;20343;-54
2023/03/07 04:37:07;;;;;;;;;;;;;;;;;;5012206;28;20425;-54
2023/03/07 04:39:33;;;;;;;;;;;;;;;;;;5013606;28;19914;-54
2023/03/07 04:41:59;;;;;;;;;;;;;;;;;;5025559;28;19918;-54
2023/03/07 04:44:25;;;;;;;;;;;;;;;;;;5029780;28;19913;-56
2023/03/07 04:46:51;;;;;;;;;;;;;;;;;;5031080;28;19924;-55
2023/03/07 04:49:17;;;;;;;;;;;;;;;;;;5031186;28;20281;-56
2023/03/07 04:51:43;;;;;;;;;;;;;;;;;;5030891;28;20739;-55
2023/03/07 04:54:09;;;;;;;;;;;;;;;;;;5031134;28;19943;-56
2023/03/07 04:56:34;;;;;;;;;;;;;;;;;;5031450;28;19913;-55
2023/03/07 04:59:00;;;;;;;;;;;;;;;;;;5023579;28;19913;-55
2023/03/07 05:01:26;;;;;;;;;;;;;;;;;;5030566;28;20003;-55
2023/03/07 05:03:52;;;;;;;;;;;;;;;;;;5015309;28;19913;-55
2023/03/07 05:06:18;;;;;;;;;;;;;;;;;;5020569;28;20386;-56
2023/03/07 05:08:44;;;;;;;;;;;;;;;;;;5030675;28;19975;-56
2023/03/07 05:11:10;;;;;;;;;;;;;;;;;;5030597;28;19971;-55
2023/03/07 05:13:36;;;;;;;;;;;;;;;;;;5031152;28;19913;-55
2023/03/07 05:16:02;;;;;;;;;;;;;;;;;;5030553;28;19910;-55
2023/03/07 05:18:27;;;;;;;;;;;;;;;;;;5016750;28;20446;-55
2023/03/07 05:20:53;;;;;;;;;;;;;;;;;;5011267;28;20048;-56
2023/03/07 05:23:19;;;;;;;;;;;;;;;;;;5013094;28;19914;-54
2023/03/07 05:25:48;;;;;;;;;;;;;;;;;;5013813;28;19913;-56
2023/03/07 05:28:15;;;;;;;;;;;;;;;;;;5011269;28;19932;-56
2023/03/07 05:30:41;;;;;;;;;;;;;;;;;;5011464;28;19914;-55
2023/03/07 05:33:07;;;;;;;;;;;;;;;;;;5011510;28;19963;-56
2023/03/07 05:35:33;;;;;;;;;;;;;;;;;;5016847;28;20341;-54
2023/03/07 05:37:59;;;;;;;;;;;;;;;;;;5017349;28;20004;-55
2023/03/07 05:40:25;;;;;;;;;;;;;;;;;;5011546;28;20390;-54
2023/03/07 05:42:51;;;;;;;;;;;;;;;;;;5011241;28;19920;-55
2023/03/07 05:45:17;;;;;;;;;;;;;;;;;;5017232;28;20012;-55
2023/03/07 05:47:43;;;;;;;;;;;;;;;;;;5011891;28;19917;-56
2023/03/07 05:50:09;;;;;;;;;;;;;;;;;;5014395;28;19913;-55
2023/03/07 05:52:35;;;;;;;;;;;;;;;;;;5028493;28;20370;-56
2023/03/07 05:55:00;;;;;;;;;;;;;;;;;;5030460;28;19909;-55
2023/03/07 05:57:26;;;;;;;;;;;;;;;;;;5029977;28;19913;-55
2023/03/07 05:59:52;;;;;;;;;;;;;;;;;;5019402;28;19949;-55
2023/03/07 06:02:18;;;;;;;;;;;;;;;;;;5010905;28;19913;-56
2023/03/07 06:04:45;;;;;;;;;;;;;;;;;;5010698;28;19909;-56
2023/03/07 06:07:11;;;;;;;;;;;;;;;;;;5010863;28;19913;-56
2023/03/07 06:09:37;;;;;;;;;;;;;;;;;;5012255;28;20491;-56
2023/03/07 06:12:03;;;;;;;;;;;;;;;;;;5026649;28;19944;-55
2023/03/07 06:14:29;;;;;;;;;;;;;;;;;;5029673;28;20297;-56
2023/03/07 06:16:55;;;;;;;;;;;;;;;;;;5029780;28;19920;-57
2023/03/07 06:19:21;;;;;;;;;;;;;;;;;;5029390;28;19920;-56
2023/03/07 06:21:47;;;;;;;;;;;;;;;;;;5029510;28;20003;-56
2023/03/07 06:24:13;;;;;;;;;;;;;;;;;;5029430;28;19913;-56
2023/03/07 06:26:39;;;;;;;;;;;;;;;;;;5027140;28;20039;-54
2023/03/07 06:29:05;;;;;;;;;;;;;;;;;;5024279;28;19924;-55
2023/03/07 06:31:30;;;;;;;;;;;;;;;;;;5029173;28;19960;-55
2023/03/07 06:33:56;;;;;;;;;;;;;;;;;;5027990;28;20263;-56
2023/03/07 06:36:22;;;;;;;;;;;;;;;;;;5014453;28;19914;-56
2023/03/07 06:38:48;;;;;;;;;;;;;;;;;;5029005;28;20001;-56
2023/03/07 06:41:14;;;;;;;;;;;;;;;;;;5029637;28;19913;-55
2023/03/07 06:43:40;;;;;;;;;;;;;;;;;;5029024;28;19920;-55
2023/03/07 06:46:06;;;;;;;;;;;;;;;;;;5010687;28;19921;-56
2023/03/07 06:48:33;;;;;;;;;;;;;;;;;;5010125;28;19928;-55
2023/03/07 06:50:59;;;;;;;;;;;;;;;;;;5021840;28;19916;-56
2023/03/07 06:53:25;;;;;;;;;;;;;;;;;;5028898;28;19913;-56
2023/03/07 06:55:51;;;;;;;;;;;;;;;;;;5024114;28;19924;-55
2023/03/07 06:58:17;;;;;;;;;;;;;;;;;;5009571;28;19964;-56
2023/03/07 07:00:43;;;;;;;;;;;;;;;;;;5009842;28;19910;-55
2023/03/07 07:03:09;;;;;;;;;;;;;;;;;;5026804;28;19916;-54
2023/03/07 07:05:35;;;;;;;;;;;;;;;;;;5029106;28;20294;-55
2023/03/07 07:08:00;;;;;;;;;;;;;;;;;;5028533;28;19925;-55
2023/03/07 07:10:26;;;;;;;;;;;;;;;;;;5019134;28;20298;-54
2023/03/07 07:12:55;;;;;;;;;;;;;;;;;;5009296;28;20004;-56
2023/03/07 07:15:21;;;;;;;;;;;;;;;;;;5010157;28;19920;-56
2023/03/07 07:17:47;;;;;;;;;;;;;;;;;;5009156;28;19914;-55
2023/03/07 07:20:13;;;;;;;;;;;;;;;;;;5009322;28;19928;-55
2023/03/07 07:22:38;;;;;;;;;;;;;;;;;;5008791;28;19924;-54
2023/03/07 07:25:04;;;;;;;;;;;;;;;;;;5009292;28;19985;-56
2023/03/07 07:27:30;;;;;;;;;;;;;;;;;;5010661;28;19925;-56
2023/03/07 07:29:56;;;;;;;;;;;;;;;;;;5008961;28;19909;-56
2023/03/07 07:32:22;;;;;;;;;;;;;;;;;;5008519;28;19917;-52
2023/03/07 07:34:48;;;;;;;;;;;;;;;;;;5009167;28;20057;-56
2023/03/07 07:37:14;;;;;;;;;;;;;;;;;;5025005;28;19913;-53
2023/03/07 07:39:42;;;;;;;;;;;;;;;;;;5022719;28;19960;-56
2023/03/07 07:42:08;;;;;;;;;;;;;;;;;;5023476;28;19913;-55
2023/03/07 07:44:34;;;;;;;;;;;;;;;;;;5011208;28;20008;-60
2023/03/07 07:47:00;;;;;;;;;;;;;;;;;;5013171;28;19917;-61
2023/03/07 07:49:26;;;;;;;;;;;;;;;;;;5014954;28;19913;-64
2023/03/07 07:51:52;;;;;;;;;;;;;;;;;;5008882;28;20024;-63
2023/03/07 07:54:18;;;;;;;;;;;;;;;;;;5010522;28;19953;-66
2023/03/07 07:56:43;;;;;;;;;;;;;;;;;;5027462;28;19919;-66
2023/03/07 07:59:09;;;;;;;;;;;;;;;;;;5021263;28;19913;-67
2023/03/07 08:01:35;;;;;;;;;;;;;;;;;;5027721;28;19952;-66
2023/03/07 08:04:01;;;;;;;;;;;;;;;;;;5027467;28;19972;-66
2023/03/07 08:06:27;;;;;;;;;;;;;;;;;;5025322;28;19914;-67
2023/03/07 08:08:53;;;;;;;;;;;;;;;;;;5013468;28;19917;-66
2023/03/07 08:11:19;;;;;;;;;;;;;;;;;;5025557;28;19984;-67
2023/03/07 08:13:45;;;;;;;;;;;;;;;;;;5017877;28;19917;-66
2023/03/07 08:16:11;;;;;;;;;;;;;;;;;;5018031;28;19963;-67
2023/03/07 08:18:36;;;;;;;;;;;;;;;;;;5012221;28;20396;-65
2023/03/07 08:21:02;;;;;;;;;;;;;;;;;;5017376;28;19913;-63
2023/03/07 08:23:28;;;;;;;;;;;;;;;;;;5015820;28;19935;-65
2023/03/07 08:25:54;;;;;;;;;;;;;;;;;;5018764;28;20622;-64
2023/03/07 08:28:20;;;;;;;;;;;;;;;;;;5013699;28;19968;-64
2023/03/07 08:30:46;;;;;;;;;;;;;;;;;;5023717;28;19924;-65
2023/03/07 08:33:13;;;;;;;;;;;;;;;;;;5023250;28;19913;-65
2023/03/07 08:35:38;;;;;;;;;;;;;;;;;;5028475;28;19982;-65
2023/03/07 08:38:04;;;;;;;;;;;;;;;;;;5025751;28;19913;-65
2023/03/07 08:40:30;;;;;;;;;;;;;;;;;;5024426;28;19921;-64
2023/03/07 08:42:56;;;;;;;;;;;;;;;;;;5024859;28;20331;-64
2023/03/07 08:45:22;;;;;;;;;;;;;;;;;;5025214;28;19920;-65
2023/03/07 08:47:48;;;;;;;;;;;;;;;;;;5023554;28;20392;-66
2023/03/07 08:50:14;;;;;;;;;;;;;;;;;;5021032;28;20301;-64
2023/03/07 08:52:40;;;;;;;;;;;;;;;;;;5019311;28;20337;-66
2023/03/07 08:55:06;;;;;;;;;;;;;;;;;;5011421;28;19914;-66
2023/03/07 08:57:32;;;;;;;;;;;;;;;;;;5023128;28;19914;-66
2023/03/07 08:59:58;;;;;;;;;;;;;;;;;;5010688;28;20044;-66
2023/03/07 09:02:24;;;;;;;;;;;;;;;;;;5010239;28;19948;-64
2023/03/07 09:04:50;;;;;;;;;;;;;;;;;;5010482;28;20015;-66
2023/03/07 09:07:17;;;;;;;;;;;;;;;;;;5017210;28;19929;-65
2023/03/07 09:09:43;;;;;;;;;;;;;;;;;;5017176;28;19928;-65
2023/03/07 09:12:09;;;;;;;;;;;;;;;;;;5017903;28;20390;-65
2023/03/07 09:14:35;;;;;;;;;;;;;;;;;;5018877;28;20020;-66
2023/03/07 09:17:01;;;;;;;;;;;;;;;;;;5015569;28;20385;-65
2023/03/07 09:19:27;;;;;;;;;;;;;;;;;;5012139;28;19920;-65
2023/03/07 09:21:54;;;;;;;;;;;;;;;;;;5023827;28;19910;-64
2023/03/07 09:24:20;;;;;;;;;;;;;;;;;;5028097;28;20306;-65
2023/03/07 09:26:46;;;;;;;;;;;;;;;;;;5021261;28;19913;-63
2023/03/07 09:29:11;;;;;;;;;;;;;;;;;;5023296;28;19921;-65
2023/03/07 09:31:37;;;;;;;;;;;;;;;;;;5018974;28;19921;-65
2023/03/07 09:34:04;;;;;;;;;;;;;;;;;;5023535;28;19913;-64
2023/03/07 09:36:30;;;;;;;;;;;;;;;;;;5026375;28;20366;-65
2023/03/07 09:38:56;;;;;;;;;;;;;;;;;;5024687;28;19916;-64
2023/03/07 09:41:22;;;;;;;;;;;;;;;;;;5023209;28;19941;-67
2023/03/07 09:43:47;;;;;;;;;;;;;;;;;;5024356;28;19913;-67
2023/03/07 09:46:13;;;;;;;;;;;;;;;;;;5028786;28;19931;-66
2023/03/07 09:48:39;;;;;;;;;;;;;;;;;;5028323;28;20045;-67
2023/03/07 09:51:05;;;;;;;;;;;;;;;;;;5026821;28;19921;-66
2023/03/07 09:53:31;;;;;;;;;;;;;;;;;;5009742;28;19910;-64
2023/03/07 09:55:57;;;;;;;;;;;;;;;;;;5009316;28;20008;-72
2023/03/07 09:58:23;;;;;;;;;;;;;;;;;;5009383;28;19909;-67
2023/03/07 10:00:49;;;;;;;;;;;;;;;;;;5022088;28;20387;-67
2023/03/07 10:03:17;;;;;;;;;;;;;;;;;;5028577;28;20376;-66
2023/03/07 10:05:42;;;;;;;;;;;;;;;;;;5009695;28;19949;-66
2023/03/07 10:08:08;;;;;;;;;;;;;;;;;;5009565;28;20005;-66
2023/03/07 10:10:34;;;;;;;;;;;;;;;;;;5009154;28;19914;-67
2023/03/07 10:13:00;;;;;;;;;;;;;;;;;;5009038;28;19922;-66
2023/03/07 10:15:26;;;;;;;;;;;;;;;;;;5017130;28;19921;-66
2023/03/07 10:17:52;;;;;;;;;;;;;;;;;;5009363;28;19914;-66
2023/03/07 10:20:18;;;;;;;;;;;;;;;;;;5009075;28;19909;-66
2023/03/07 10:22:44;;;;;;;;;;;;;;;;;;5025827;28;19910;-67
2023/03/07 10:25:10;;;;;;;;;;;;;;;;;;5017915;28;19913;-67
2023/03/07 10:27:35;;;;;;;;;;;;;;;;;;5020072;28;19921;-66
2023/03/07 10:30:01;;;;;;;;;;;;;;;;;;5012518;28;19963;-66
2023/03/07 10:32:27;;;;;;;;;;;;;;;;;;5012615;28;20381;-67
2023/03/07 10:34:54;;;;;;;;;;;;;;;;;;5015355;28;20009;-64
2023/03/07 10:37:20;;;;;;;;;;;;;;;;;;5012440;28;19924;-66
2023/03/07 10:39:46;;;;;;;;;;;;;;;;;;5008488;28;19933;-67
2023/03/07 10:42:12;;;;;;;;;;;;;;;;;;5009173;28;19914;-65
2023/03/07 10:44:38;;;;;;;;;;;;;;;;;;5017297;28;20015;-67
2023/03/07 10:47:04;;;;;;;;;;;;;;;;;;5023724;28;19925;-68
2023/03/07 10:49:30;;;;;;;;;;;;;;;;;;5025570;28;19913;-66
2023/03/07 10:51:56;;;;;;;;;;;;;;;;;;5014077;28;20582;-68
2023/03/07 10:54:22;;;;;;;;;;;;;;;;;;5008794;28;20444;-68
2023/03/07 10:56:48;;;;;;;;;;;;;;;;;;5021554;28;19913;-67
2023/03/07 10:59:13;;;;;;;;;;;;;;;;;;5015079;28;19913;-64
2023/03/07 11:01:39;;;;;;;;;;;;;;;;;;5015041;28;20293;-66
2023/03/07 11:04:05;;;;;;;;;;;;;;;;;;5009204;28;19914;-67
2023/03/07 11:06:32;;;;;;;;;;;;;;;;;;5009266;28;20334;-67
2023/03/07 11:08:58;;;;;;;;;;;;;;;;;;5009150;28;19960;-67
2023/03/07 11:11:24;;;;;;;;;;;;;;;;;;5008485;28;19923;-67
2023/03/07 11:13:50;;;;;;;;;;;;;;;;;;5026319;28;19909;-68
2023/03/07 11:16:16;;;;;;;;;;;;;;;;;;5022586;28;20207;-67
2023/03/07 11:18:42;;;;;;;;;;;;;;;;;;5010044;28;19916;-67
2023/03/07 11:21:08;;;;;;;;;;;;;;;;;;5012741;28;19984;-68
2023/03/07 11:23:33;;;;;;;;;;;;;;;;;;5027180;28;19924;-68
2023/03/07 11:25:59;;;;;;;;;;;;;;;;;;5017017;28;19913;-66
2023/03/07 11:28:25;;;;;;;;;;;;;;;;;;5017287;28;20482;-66
2023/03/07 11:30:53;;;;;;;;;;;;;;;;;;5026535;28;20483;-66
2023/03/07 11:33:19;;;;;;;;;;;;;;;;;;5025827;28;19935;-67
2023/03/07 11:35:45;;;;;;;;;;;;;;;;;;5022208;28;19952;-66
2023/03/07 11:38:11;;;;;;;;;;;;;;;;;;5018765;28;19917;-66
2023/03/07 11:40:37;;;;;;;;;;;;;;;;;;5017869;28;19914;-67
2023/03/07 11:43:03;;;;;;;;;;;;;;;;;;5008434;28;20464;-67
2023/03/07 11:45:29;;;;;;;;;;;;;;;;;;5017135;28;19916;-67
2023/03/07 11:47:54;;;;;;;;;;;;;;;;;;5008013;28;19921;-64
2023/03/07 11:50:21;;;;;;;;;;;;;;;;;;5008519;28;19917;-67
2023/03/07 11:52:47;;;;;;;;;;;;;;;;;;5015620;28;20274;-67
2023/03/07 11:55:12;;;;;;;;;;;;;;;;;;5026681;28;19987;-67
2023/03/07 11:57:38;;;;;;;;;;;;;;;;;;5013449;28;19960;-67
2023/03/07 12:00:04;;;;;;;;;;;;;;;;;;5026983;28;19951;-67
2023/03/07 12:02:30;;;;;;;;;;;;;;;;;;5013646;28;19923;-67
2023/03/07 12:04:56;;;;;;;;;;;;;;;;;;5007671;28;20005;-67
2023/03/07 12:07:22;;;;;;;;;;;;;;;;;;5007575;28;19948;-67
2023/03/07 12:09:50;;;;;;;;;;;;;;;;;;5017271;28;19909;-67
2023/03/07 12:12:16;;;;;;;;;;;;;;;;;;5024990;28;19949;-67
2023/03/07 12:14:42;;;;;;;;;;;;;;;;;;5024036;28;19944;-69
2023/03/07 12:17:08;;;;;;;;;;;;;;;;;;5014072;28;19914;-64
2023/03/07 12:19:34;;;;;;;;;;;;;;;;;;5018352;28;19918;-66
2023/03/07 12:21:59;;;;;;;;;;;;;;;;;;5012223;28;19917;-66
2023/03/07 12:24:25;;;;;;;;;;;;;;;;;;5029326;28;19909;-67
2023/03/07 12:26:51;;;;;;;;;;;;;;;;;;5019129;28;20293;-68
2023/03/07 12:29:17;;;;;;;;;;;;;;;;;;5027907;28;19913;-67
2023/03/07 12:31:43;;;;;;;;;;;;;;;;;;5020551;28;20298;-66
2023/03/07 12:34:09;;;;;;;;;;;;;;;;;;5030685;28;19924;-67
2023/03/07 12:36:35;;;;;;;;;;;;;;;;;;5018723;28;19982;-67
2023/03/07 12:39:01;;;;;;;;;;;;;;;;;;5017815;28;19921;-67
2023/03/07 12:41:27;;;;;;;;;;;;;;;;;;5014193;28;19909;-67
2023/03/07 12:43:53;;;;;;;;;;;;;;;;;;5011308;28;19916;-66
2023/03/07 12:46:18;;;;;;;;;;;;;;;;;;5022368;28;20012;-67
2023/03/07 12:48:44;;;;;;;;;;;;;;;;;;5029897;28;19921;-65
2023/03/07 12:51:10;;;;;;;;;;;;;;;;;;5029748;28;19909;-66
2023/03/07 12:53:36;;;;;;;;;;;;;;;;;;5029894;28;19913;-66
2023/03/07 12:56:02;;;;;;;;;;;;;;;;;;5021423;28;19920;-67
2023/03/07 12:58:28;;;;;;;;;;;;;;;;;;5012424;28;19920;-67
2023/03/07 13:00:54;;;;;;;;;;;;;;;;;;5010702;28;19914;-68
2023/03/07 13:03:20;;;;;;;;;;;;;;;;;;5011475;28;19913;-66
2023/03/07 13:05:46;;;;;;;;;;;;;;;;;;5029493;28;19953;-66
2023/03/07 13:08:11;;;;;;;;;;;;;;;;;;5022961;28;19925;-66
2023/03/07 13:10:37;;;;;;;;;;;;;;;;;;5022982;28;20440;-66
2023/03/07 13:13:03;;;;;;;;;;;;;;;;;;5010677;28;20017;-66
2023/03/07 13:15:29;;;;;;;;;;;;;;;;;;5023140;28;20699;-67
2023/03/07 13:17:55;;;;;;;;;;;;;;;;;;5029302;28;20411;-66
2023/03/07 13:20:21;;;;;;;;;;;;;;;;;;5028883;28;19913;-68
2023/03/07 13:22:47;;;;;;;;;;;;;;;;;;5017571;28;19914;-66
2023/03/07 13:25:13;;;;;;;;;;;;;;;;;;5010601;28;19913;-66
2023/03/07 13:27:39;;;;;;;;;;;;;;;;;;5009994;28;19926;-67
2023/03/07 13:30:05;;;;;;;;;;;;;;;;;;5016665;28;19923;-66
2023/03/07 13:32:31;;;;;;;;;;;;;;;;;;5010424;28;19917;-66
2023/03/07 13:34:57;;;;;;;;;;;;;;;;;;5012818;28;19921;-67
2023/03/07 13:37:22;;;;;;;;;;;;;;;;;;5012737;28;19914;-66
2023/03/07 13:39:48;;;;;;;;;;;;;;;;;;5027212;28;19909;-66
2023/03/07 13:42:14;;;;;;;;;;;;;;;;;;5019373;28;19992;-67
2023/03/07 13:44:41;;;;;;;;;;;;;;;;;;5010390;28;19909;-67
2023/03/07 13:47:06;;;;;;;;;;;;;;;;;;5010132;28;19917;-67
2023/03/07 13:49:32;;;;;;;;;;;;;;;;;;5009647;28;19917;-65
2023/03/07 13:51:58;;;;;;;;;;;;;;;;;;5010334;28;19909;-66
2023/03/07 13:54:24;;;;;;;;;;;;;;;;;;5011780;28;19917;-66
2023/03/07 13:56:50;;;;;;;;;;;;;;;;;;5022249;28;19913;-65
2023/03/07 13:59:16;;;;;;;;;;;;;;;;;;5028794;28;19913;-66
2023/03/07 14:01:45;;;;;;;;;;;;;;;;;;5028213;28;19917;-65
2023/03/07 14:04:11;;;;;;;;;;;;;;;;;;5019930;28;19917;-65
2023/03/07 14:06:37;;;;;;;;;;;;;;;;;;5016887;28;19924;-65
2023/03/07 14:09:03;;;;;;;;;;;;;;;;;;5014952;28;20278;-65
2023/03/07 14:11:29;;;;;;;;;;;;;;;;;;5009418;28;20339;-66
2023/03/07 14:13:55;;;;;;;;;;;;;;;;;;5010053;28;20020;-65
2023/03/07 14:16:21;;;;;;;;;;;;;;;;;;5021606;28;20007;-65
2023/03/07 14:18:47;;;;;;;;;;;;;;;;;;5009706;28;20310;-65
2023/03/07 14:21:13;;;;;;;;;;;;;;;;;;5028670;28;19913;-67
2023/03/07 14:23:39;;;;;;;;;;;;;;;;;;5028230;28;19920;-67
2023/03/07 14:26:05;;;;;;;;;;;;;;;;;;5027526;28;19916;-69
2023/03/07 14:28:31;;;;;;;;;;;;;;;;;;5028451;28;19967;-68
2023/03/07 14:30:57;;;;;;;;;;;;;;;;;;5020286;28;19920;-68
2023/03/07 14:33:23;;;;;;;;;;;;;;;;;;5024821;28;20313;-69
2023/03/07 14:35:49;;;;;;;;;;;;;;;;;;5021291;28;19921;-68
2023/03/07 14:38:15;;;;;;;;;;;;;;;;;;5015646;28;19993;-70
2023/03/07 14:40:41;;;;;;;;;;;;;;;;;;5018798;28;19913;-70
2023/03/07 14:43:07;;;;;;;;;;;;;;;;;;5024324;28;19909;-71
2023/03/07 14:45:33;;;;;;;;;;;;;;;;;;5024847;28;19920;-70
2023/03/07 14:47:59;;;;;;;;;;;;;;;;;;5024734;28;19960;-70
2023/03/07 14:50:24;;;;;;;;;;;;;;;;;;5025370;28;19914;-69
2023/03/07 14:52:50;;;;;;;;;;;;;;;;;;5021188;28;19913;-70
2023/03/07 14:55:16;;;;;;;;;;;;;;;;;;5016470;28;19952;-70
2023/03/07 14:57:44;;;;;;;;;;;;;;;;;;5012716;28;19916;-71
2023/03/07 15:00:11;;;;;;;;;;;;;;;;;;5025353;28;20322;-68
2023/03/07 15:02:37;;;;;;;;;;;;;;;;;;5016384;28;19917;-68
2023/03/07 15:05:03;;;;;;;;;;;;;;;;;;5024529;28;19909;-68
2023/03/07 15:07:29;;;;;;;;;;;;;;;;;;5024457;28;19971;-69
2023/03/07 15:09:55;;;;;;;;;;;;;;;;;;5026359;28;19921;-68
2023/03/07 15:12:21;;;;;;;;;;;;;;;;;;5019194;28;19913;-68
2023/03/07 15:14:47;;;;;;;;;;;;;;;;;;5011639;28;19913;-66
2023/03/07 15:17:12;;;;;;;;;;;;;;;;;;5009207;28;20290;-67
2023/03/07 15:19:38;;;;;;;;;;;;;;;;;;5027709;28;19909;-67
2023/03/07 15:22:04;;;;;;;;;;;;;;;;;;5023716;28;20401;-70
2023/03/07 15:24:30;;;;;;;;;;;;;;;;;;5020578;28;19960;-69
2023/03/07 15:26:57;;;;;;;;;;;;;;;;;;5025664;28;20088;-68
2023/03/07 15:29:23;;;;;;;;;;;;;;;;;;5027020;28;20034;-71
2023/03/07 15:31:49;;;;;;;;;;;;;;;;;;5021658;28;20458;-70
2023/03/07 15:34:15;;;;;;;;;;;;;;;;;;5020399;28;19924;-69
2023/03/07 15:36:41;;;;;;;;;;;;;;;;;;5020600;28;20007;-68
2023/03/07 15:39:07;;;;;;;;;;;;;;;;;;5025889;28;19952;-68
2023/03/07 15:41:33;;;;;;;;;;;;;;;;;;5027106;28;19967;-67
2023/03/07 15:43:59;;;;;;;;;;;;;;;;;;5012444;28;19948;-69
2023/03/07 15:46:25;;;;;;;;;;;;;;;;;;5029210;28;20377;-67
2023/03/07 15:48:51;;;;;;;;;;;;;;;;;;5014792;28;19921;-68
2023/03/07 15:51:17;;;;;;;;;;;;;;;;;;5012734;28;20405;-68
2023/03/07 15:53:43;;;;;;;;;;;;;;;;;;5012337;28;19914;-67
2023/03/07 15:56:08;;;;;;;;;;;;;;;;;;5015680;28;19948;-69
2023/03/07 15:58:35;;;;;;;;;;;;;;;;;;5015278;28;19909;-67
2023/03/07 16:01:00;;;;;;;;;;;;;;;;;;5028843;28;19932;-65
2023/03/07 16:03:26;;;;;;;;;;;;;;;;;;5026530;28;19909;-70
2023/03/07 16:05:52;;;;;;;;;;;;;;;;;;5027425;28;20385;-69
2023/03/07 16:08:21;;;;;;;;;;;;;;;;;;5024198;28;20009;-68
2023/03/07 16:10:47;;;;;;;;;;;;;;;;;;5012147;28;20416;-68
2023/03/07 16:13:13;;;;;;;;;;;;;;;;;;5011885;28;19944;-68
2023/03/07 16:15:39;;;;;;;;;;;;;;;;;;5025945;28;19917;-68
2023/03/07 16:18:05;;;;;;;;;;;;;;;;;;5024693;28;20382;-67
2023/03/07 16:20:31;;;;;;;;;;;;;;;;;;5029192;28;20011;-68
2023/03/07 16:22:57;;;;;;;;;;;;;;;;;;5021283;28;19910;-70
2023/03/07 16:25:23;;;;;;;;;;;;;;;;;;5017419;28;19943;-68
2023/03/07 16:27:49;;;;;;;;;;;;;;;;;;5011071;28;19926;-69
2023/03/07 16:30:15;;;;;;;;;;;;;;;;;;5012315;28;19924;-67
2023/03/07 16:32:41;;;;;;;;;;;;;;;;;;5031166;28;19917;-68
2023/03/07 16:35:07;;;;;;;;;;;;;;;;;;5018273;28;20378;-67
2023/03/07 16:37:32;;;;;;;;;;;;;;;;;;5028844;28;19913;-69